Trinity, North Carolina
Current Conditions -  °F | °C
As of 4:54 AM on Thursday 18 Dec 2014 (Local Time) from KGSO Reporting Station
Clear Clear  
Wind Chill: 34°   Ceiling: Unl
Heat Index: 38°   Visibility: 10mi
Dew Point: 24°   Wind: 5mph
Humidity: 57%   Direction: 20°NNE
Pressure: 30.11"   Gusts: NA
Location:  35.89°N, 79.99°W
Report Text: KGSO 180954Z 02004KT 10SM CLR 03/M04 A3011 RMK AO2 SLP196 T00331044
Loading
Personal Weather Stations






























Interactive Weather Map New forecast layout! Learn more

10-Day Weather Forecast

Advertisements
Track Severe Weather on mobile